createdAt,value
2022-12-09T00:00:21.254Z,99684.31
2022-12-09T00:02:49.062Z,99683.63
2022-12-09T00:05:17.571Z,99686.25
2022-12-09T00:07:45.574Z,99678.50
2022-12-09T00:10:13.442Z,99681.41
2022-12-09T00:12:42.630Z,99676.94
2022-12-09T00:15:11.202Z,99687.59
2022-12-09T00:17:38.981Z,99678.50
2022-12-09T00:20:08.770Z,99677.66
2022-12-09T00:22:36.549Z,99672.41
2022-12-09T00:25:04.863Z,99678.38
2022-12-09T00:27:32.663Z,99679.63
2022-12-09T00:30:01.923Z,99684.47
2022-12-09T00:32:29.686Z,99679.59
2022-12-09T00:34:57.764Z,99679.59
2022-12-09T00:37:25.528Z,99674.63
2022-12-09T00:39:53.227Z,99670.91
2022-12-09T00:42:21.206Z,99670.19
2022-12-09T00:44:49.193Z,99669.75
2022-12-09T00:47:18.714Z,99673.91
2022-12-09T00:49:46.398Z,99668.78
2022-12-09T00:52:14.185Z,99668.53
2022-12-09T00:54:42.195Z,99663.78
2022-12-09T00:57:10.128Z,99659.06
2022-12-09T00:59:37.960Z,99662.94
2022-12-09T01:02:05.765Z,99666.41
2022-12-09T01:04:35.170Z,99658.78
2022-12-09T01:07:03.083Z,99668.97
2022-12-09T01:09:30.981Z,99665.06
2022-12-09T01:11:59.044Z,99671.16
2022-12-09T01:14:26.910Z,99675.16
2022-12-09T01:16:54.758Z,99673.22
2022-12-09T01:19:22.696Z,99670.91
2022-12-09T01:21:54.905Z,99664.53
2022-12-09T01:24:23.062Z,99665.72
2022-12-09T01:26:50.768Z,99672.91
2022-12-09T01:29:18.486Z,99669.56
2022-12-09T01:31:46.243Z,99673.22
2022-12-09T01:34:13.995Z,99663.84
2022-12-09T01:36:41.751Z,99668.81
2022-12-09T01:39:11.597Z,99671.88
2022-12-09T01:41:39.622Z,99669.63
2022-12-09T01:44:13.134Z,99665.97
2022-12-09T01:46:41.628Z,99666.84
2022-12-09T01:49:13.233Z,99663.91
2022-12-09T01:51:41.929Z,99656.28
2022-12-09T01:54:11.045Z,99659.72
2022-12-09T01:56:41.621Z,99657.91
2022-12-09T01:59:11.781Z,99660.44
2022-12-09T02:01:40.426Z,99657.13
2022-12-09T02:04:09.102Z,99655.19
2022-12-09T02:06:38.010Z,99649.06
2022-12-09T02:09:06.642Z,99642.69
2022-12-09T02:11:46.171Z,99637.16
2022-12-09T02:14:19.267Z,99633.84
2022-12-09T02:16:57.240Z,99637.72
2022-12-09T02:19:40.573Z,99637.88
2022-12-09T02:22:12.103Z,99636.38
2022-12-09T02:24:44.946Z,99632.16
2022-12-09T02:27:20.042Z,99636.06
2022-12-09T02:30:00.401Z,99625.84
2022-12-09T02:33:00.108Z,99630.53
2022-12-09T02:35:37.311Z,99626.25
2022-12-09T02:38:10.589Z,99623.22
2022-12-09T02:40:45.661Z,99625.41
2022-12-09T02:43:16.260Z,99619.38
2022-12-09T02:45:45.272Z,99617.56
2022-12-09T02:48:17.122Z,99615.63
2022-12-09T02:50:48.251Z,99606.06
2022-12-09T02:53:17.268Z,99609.50
2022-12-09T02:55:49.040Z,99602.84
2022-12-09T02:58:16.841Z,99602.25
2022-12-09T03:00:44.923Z,99601.13
2022-12-09T03:03:17.605Z,99599.88
2022-12-09T03:05:53.068Z,99589.22
2022-12-09T03:08:32.617Z,99593.13
2022-12-09T03:11:04.498Z,99591.31
2022-12-09T03:13:51.821Z,99594.06
2022-12-09T03:16:26.844Z,99585.31
2022-12-09T03:18:59.665Z,99584.31
2022-12-09T03:21:32.986Z,99576.41
2022-12-09T03:24:03.190Z,99571.69
2022-12-09T03:26:34.566Z,99565.75
2022-12-09T03:29:05.353Z,99570.56
2022-12-09T03:31:35.743Z,99564.88
2022-12-09T03:34:06.369Z,99565.41
2022-12-09T03:36:39.264Z,99568.81
2022-12-09T03:39:11.811Z,99561.34
2022-12-09T03:41:45.048Z,99566.03
2022-12-09T03:44:15.250Z,99558.41
2022-12-09T03:46:43.527Z,99560.19
2022-12-09T03:49:12.260Z,99556.59
2022-12-09T03:51:45.426Z,99554.81
2022-12-09T03:54:20.434Z,99557.44
2022-12-09T03:56:52.805Z,99560.06
2022-12-09T03:59:23.266Z,99558.66
2022-12-09T04:01:52.217Z,99549.03
2022-12-09T04:04:20.544Z,99556.00
2022-12-09T04:06:53.599Z,99550.03
2022-12-09T04:09:21.582Z,99546.22
2022-12-09T04:11:49.381Z,99552.13
2022-12-09T04:14:17.195Z,99554.09
2022-12-09T04:16:45.493Z,99551.72
2022-12-09T04:19:13.687Z,99551.84
2022-12-09T04:21:42.032Z,99552.09
2022-12-09T04:24:11.509Z,99548.78
2022-12-09T04:26:39.450Z,99549.28
2022-12-09T04:29:07.675Z,99552.88
2022-12-09T04:31:35.844Z,99547.78
2022-12-09T04:34:09.163Z,99550.53
2022-12-09T04:36:38.117Z,99547.63
2022-12-09T04:39:06.155Z,99546.22
2022-12-09T04:41:35.348Z,99542.91
2022-12-09T04:44:03.162Z,99546.75
2022-12-09T04:46:31.027Z,99543.41
2022-12-09T04:48:59.077Z,99544.13
2022-12-09T04:51:26.900Z,99536.50
2022-12-09T04:53:54.981Z,99543.78
2022-12-09T04:56:23.637Z,99547.22
2022-12-09T04:58:53.121Z,99537.97
2022-12-09T05:01:30.587Z,99543.31
2022-12-09T05:03:59.663Z,99530.56
2022-12-09T05:06:28.258Z,99533.09
2022-12-09T05:08:56.648Z,99534.19
2022-12-09T05:11:25.074Z,99531.38
2022-12-09T05:13:55.307Z,99532.88
2022-12-09T05:16:23.991Z,99524.66
2022-12-09T05:18:52.393Z,99524.66
2022-12-09T05:21:21.819Z,99518.91
2022-12-09T05:23:50.375Z,99519.59
2022-12-09T05:26:21.292Z,99518.38
2022-12-09T05:28:49.476Z,99506.69
2022-12-09T05:31:20.875Z,99515.63
2022-12-09T05:33:50.425Z,99504.56
2022-12-09T05:36:20.366Z,99504.31
2022-12-09T05:38:49.020Z,99498.47
2022-12-09T05:41:17.165Z,99506.63
2022-12-09T05:43:45.212Z,99499.44
2022-12-09T05:46:14.789Z,99498.81
2022-12-09T05:48:45.063Z,99502.94
2022-12-09T05:51:16.178Z,99489.16
2022-12-09T05:53:44.580Z,99499.72
2022-12-09T05:56:16.368Z,99496.75
2022-12-09T05:58:45.021Z,99494.34
2022-12-09T06:01:13.695Z,99505.16
2022-12-09T06:03:42.056Z,99510.16
2022-12-09T06:06:13.741Z,99504.63
2022-12-09T06:08:43.644Z,99488.13
2022-12-09T06:11:14.452Z,99492.69
2022-12-09T06:13:42.449Z,99505.59
2022-12-09T06:16:11.287Z,99498.72
2022-12-09T06:18:39.421Z,99500.03
2022-12-09T06:21:09.274Z,99499.03
2022-12-09T06:23:41.416Z,99500.19
2022-12-09T06:26:17.807Z,99497.25
2022-12-09T06:28:46.264Z,99493.94
2022-12-09T06:31:14.199Z,99494.97
2022-12-09T06:33:59.042Z,99486.22
2022-12-09T06:36:29.177Z,99494.50
2022-12-09T06:39:07.616Z,99498.22
2022-12-09T06:41:38.137Z,99488.94
2022-12-09T06:44:06.772Z,99486.59
2022-12-09T06:46:34.746Z,99484.94
2022-12-09T06:49:02.741Z,99479.81
2022-12-09T06:51:30.744Z,99484.22
2022-12-09T06:53:59.916Z,99474.69
2022-12-09T06:56:27.843Z,99483.00
2022-12-09T06:58:55.595Z,99477.94
2022-12-09T07:01:25.927Z,99476.28
2022-12-09T07:03:56.050Z,99478.72
2022-12-09T07:06:28.802Z,99478.28
2022-12-09T07:09:00.163Z,99474.13
2022-12-09T07:11:29.062Z,99483.22
2022-12-09T07:13:57.026Z,99493.47
2022-12-09T07:16:25.227Z,99478.56
2022-12-09T07:18:53.848Z,99488.22
2022-12-09T07:21:23.382Z,99474.97
2022-12-09T07:23:51.884Z,99485.59
2022-12-09T07:26:22.221Z,99482.00
2022-12-09T07:28:50.582Z,99489.03
2022-12-09T07:31:22.370Z,99489.28
2022-12-09T07:33:51.572Z,99481.53
2022-12-09T07:36:21.443Z,99477.72
2022-12-09T07:38:50.338Z,99479.94
2022-12-09T07:41:19.388Z,99473.59
2022-12-09T07:43:49.665Z,99472.53
2022-12-09T07:46:19.913Z,99467.81
2022-12-09T07:48:48.343Z,99472.22
2022-12-09T07:51:17.142Z,99474.03
2022-12-09T07:53:45.406Z,99476.41
2022-12-09T07:56:15.682Z,99477.22
2022-12-09T07:58:44.611Z,99476.16
2022-12-09T08:01:16.756Z,99477.81
2022-12-09T08:03:45.314Z,99472.03
2022-12-09T08:06:15.174Z,99472.56
2022-12-09T08:08:44.260Z,99474.41
2022-12-09T08:11:14.653Z,99474.84
2022-12-09T08:13:43.155Z,99469.31
2022-12-09T08:16:14.187Z,99464.63
2022-12-09T08:18:43.945Z,99464.38
2022-12-09T08:21:14.001Z,99466.75
2022-12-09T08:23:42.661Z,99469.13
2022-12-09T08:26:11.925Z,99471.88
2022-12-09T08:28:40.242Z,99469.03
2022-12-09T08:31:09.432Z,99470.53
2022-12-09T08:33:39.102Z,99466.41
2022-12-09T08:36:12.314Z,99463.91
2022-12-09T08:38:40.220Z,99466.97
2022-12-09T08:41:14.959Z,99463.38
2022-12-09T08:43:44.272Z,99466.00
2022-12-09T08:46:13.837Z,99464.47
2022-12-09T08:48:44.620Z,99465.16
2022-12-09T08:51:13.357Z,99463.63
2022-12-09T08:53:41.562Z,99454.22
2022-12-09T08:56:11.857Z,99456.44
2022-12-09T08:58:40.313Z,99451.72
2022-12-09T09:01:09.000Z,99456.00
2022-12-09T09:03:37.400Z,99456.97
2022-12-09T09:06:10.831Z,99456.00
2022-12-09T09:08:39.987Z,99456.97
2022-12-09T09:11:11.522Z,99457.78
2022-12-09T09:13:40.706Z,99450.31
2022-12-09T09:16:11.389Z,99441.41
2022-12-09T09:18:40.190Z,99436.00
2022-12-09T09:21:11.050Z,99445.97
2022-12-09T09:23:39.389Z,99435.06
2022-12-09T09:26:12.435Z,99441.97
2022-12-09T09:28:40.604Z,99447.56
2022-12-09T09:31:12.513Z,99450.72
2022-12-09T09:33:40.736Z,99454.56
2022-12-09T09:36:15.112Z,99456.34
2022-12-09T09:38:43.311Z,99454.28
2022-12-09T09:41:21.783Z,99446.66
2022-12-09T09:43:50.047Z,99440.44
2022-12-09T09:46:22.476Z,99441.78
2022-12-09T09:48:52.907Z,99440.56
2022-12-09T09:51:23.021Z,99437.13
2022-12-09T09:53:53.384Z,99437.13
2022-12-09T09:56:29.282Z,99422.09
2022-12-09T09:59:08.290Z,99424.00
2022-12-09T10:01:38.797Z,99422.28
2022-12-09T10:04:14.935Z,99420.78
2022-12-09T10:06:51.195Z,99424.34
2022-12-09T10:09:23.908Z,99419.72
2022-12-09T10:12:04.697Z,99417.28
2022-12-09T10:14:44.574Z,99420.59
2022-12-09T10:17:25.121Z,99420.53
2022-12-09T10:19:56.899Z,99419.00
2022-12-09T10:22:30.655Z,99425.16
2022-12-09T10:25:00.919Z,99411.81
2022-12-09T10:27:32.280Z,99415.66
2022-12-09T10:30:03.627Z,99413.44
2022-12-09T10:32:34.833Z,99405.75
2022-12-09T10:35:14.542Z,99405.84
2022-12-09T10:37:44.585Z,99405.16
2022-12-09T10:40:23.121Z,99399.88
2022-12-09T10:43:11.011Z,99396.38
2022-12-09T10:46:16.644Z,99399.53
2022-12-09T10:48:38.558Z,99395.34
2022-12-09T10:51:11.533Z,99396.28
2022-12-09T10:53:46.746Z,99387.31
2022-12-09T10:56:19.391Z,99390.75
2022-12-09T10:58:47.375Z,99388.72
2022-12-09T11:01:17.441Z,99390.16
2022-12-09T11:03:50.754Z,99396.03
2022-12-09T11:06:28.384Z,99388.19
2022-12-09T11:09:00.296Z,99379.13
2022-12-09T11:11:46.357Z,99393.03
2022-12-09T11:14:26.431Z,99381.66
2022-12-09T11:16:56.595Z,99386.06
2022-12-09T11:19:37.082Z,99369.56
2022-12-09T11:22:22.121Z,99381.59
2022-12-09T11:24:54.642Z,99376.88
2022-12-09T11:27:28.923Z,99368.81
2022-12-09T11:30:13.077Z,99373.81
2022-12-09T11:32:57.705Z,99373.16
2022-12-09T11:35:32.181Z,99375.53
2022-12-09T11:38:03.825Z,99375.09
2022-12-09T11:40:33.736Z,99366.53
2022-12-09T11:43:01.699Z,99367.31
2022-12-09T11:45:32.093Z,99362.69
2022-12-09T11:48:32.005Z,99356.75
2022-12-09T11:51:03.208Z,99357.72
2022-12-09T11:53:32.476Z,99354.09
2022-12-09T11:56:08.278Z,99350.09
2022-12-09T11:58:41.940Z,99349.06
2022-12-09T12:01:15.508Z,99338.13
2022-12-09T12:03:51.193Z,99347.97
2022-12-09T12:06:23.307Z,99345.81
2022-12-09T12:08:54.601Z,99347.28
2022-12-09T12:11:28.034Z,99345.97
2022-12-09T12:14:02.623Z,99343.31
2022-12-09T12:16:39.433Z,99347.28
2022-12-09T12:19:14.671Z,99345.31
2022-12-09T12:22:07.488Z,99339.81
2022-12-09T12:25:02.624Z,99336.09
2022-12-09T12:27:47.757Z,99344.97
2022-12-09T12:30:19.463Z,99348.38
2022-12-09T12:33:59.715Z,99349.31
2022-12-09T12:35:58.467Z,99344.34
2022-12-09T12:38:36.961Z,99350.78
2022-12-09T12:41:12.995Z,99352.16
2022-12-09T12:44:23.052Z,99349.41
2022-12-09T12:47:03.247Z,99344.28
2022-12-09T12:49:42.409Z,99343.09
2022-12-09T12:52:54.247Z,99337.44
2022-12-09T12:55:23.687Z,99339.25
2022-12-09T12:58:01.762Z,99340.59
2022-12-09T13:00:38.186Z,99334.81
2022-12-09T13:03:20.846Z,99341.72
2022-12-09T13:05:52.353Z,99343.81
2022-12-09T13:08:27.828Z,99342.28
2022-12-09T13:10:58.625Z,99339.88
2022-12-09T13:13:32.071Z,99336.78
2022-12-09T13:16:07.293Z,99334.50
2022-12-09T13:18:38.680Z,99338.13
2022-12-09T13:21:07.928Z,99335.13
2022-12-09T13:23:52.363Z,99337.38
2022-12-09T13:26:27.941Z,99329.94
2022-12-09T13:29:02.699Z,99334.38
2022-12-09T13:31:34.030Z,99331.59
2022-12-09T13:34:18.199Z,99323.00
2022-12-09T13:36:47.624Z,99321.34
2022-12-09T13:39:53.860Z,99324.75
2022-12-09T13:42:56.251Z,99321.44
2022-12-09T13:45:35.549Z,99318.22
2022-12-09T13:48:13.341Z,99313.09
2022-12-09T13:50:57.106Z,99315.41
2022-12-09T13:53:30.403Z,99322.41
2022-12-09T13:56:00.573Z,99326.09
2022-12-09T13:58:53.382Z,99324.69
2022-12-09T14:01:25.411Z,99320.22
2022-12-09T14:04:02.209Z,99321.22
2022-12-09T14:06:33.552Z,99324.13
2022-12-09T14:09:04.818Z,99322.47
2022-12-09T14:11:47.148Z,99314.13
2022-12-09T14:14:38.508Z,99325.44
2022-12-09T14:17:21.192Z,99327.25
2022-12-09T14:20:01.395Z,99323.31
2022-12-09T14:22:34.178Z,99317.53
2022-12-09T14:25:35.048Z,99324.97
2022-12-09T14:28:26.180Z,99328.84
2022-12-09T14:30:56.219Z,99329.50
2022-12-09T14:33:31.991Z,99323.94
2022-12-09T14:36:06.551Z,99340.09
2022-12-09T14:39:07.781Z,99337.84
2022-12-09T14:41:35.759Z,99336.41
2022-12-09T14:44:16.745Z,99342.31
2022-12-09T14:46:47.209Z,99351.03
2022-12-09T14:49:19.670Z,99349.72
2022-12-09T14:51:51.293Z,99347.84
2022-12-09T14:54:23.029Z,99357.88
2022-12-09T14:56:52.866Z,99360.88
2022-12-09T14:59:23.233Z,99360.59
2022-12-09T15:01:53.400Z,99362.91
2022-12-09T15:04:26.947Z,99364.19
2022-12-09T15:07:13.710Z,99362.47
2022-12-09T15:09:53.575Z,99368.03
2022-12-09T15:12:24.214Z,99368.34
2022-12-09T15:14:57.681Z,99371.03
2022-12-09T15:17:29.884Z,99364.25
2022-12-09T15:20:00.597Z,99374.78
2022-12-09T15:22:32.326Z,99366.88
2022-12-09T15:25:02.406Z,99376.00
2022-12-09T15:27:31.417Z,99374.09
2022-12-09T15:29:59.208Z,99372.44
2022-12-09T15:32:29.536Z,99378.31
2022-12-09T15:35:16.836Z,99377.63
2022-12-09T15:37:46.336Z,99376.94
2022-12-09T15:40:19.630Z,99379.44
2022-12-09T15:42:51.597Z,99376.13
2022-12-09T15:45:22.339Z,99388.75
2022-12-09T15:47:54.709Z,99383.41
2022-12-09T15:50:25.438Z,99385.34
2022-12-09T15:52:57.045Z,99389.19
2022-12-09T15:55:29.471Z,99391.75
2022-12-09T15:58:00.526Z,99395.91
2022-12-09T16:00:28.302Z,99393.28
2022-12-09T16:02:57.290Z,99389.38
2022-12-09T16:05:26.771Z,99398.63
2022-12-09T16:08:01.143Z,99401.28
2022-12-09T16:10:29.969Z,99395.84
2022-12-09T16:13:09.708Z,99407.91
2022-12-09T16:15:44.012Z,99398.34
2022-12-09T16:18:16.992Z,99396.88
2022-12-09T16:20:45.857Z,99403.47
2022-12-09T16:23:22.441Z,99414.69
2022-12-09T16:25:51.270Z,99409.13
2022-12-09T16:28:24.066Z,99408.97
2022-12-09T16:30:55.479Z,99413.78
2022-12-09T16:33:24.775Z,99407.66
2022-12-09T16:35:59.121Z,99406.81
2022-12-09T16:38:28.305Z,99403.94
2022-12-09T16:41:05.401Z,99392.72
2022-12-09T16:43:33.940Z,99396.38
2022-12-09T16:46:03.509Z,99399.22
2022-12-09T16:48:31.769Z,99402.16
2022-12-09T16:51:07.467Z,99401.31
2022-12-09T16:53:42.132Z,99407.13
2022-12-09T16:56:19.761Z,99401.56
2022-12-09T16:58:47.571Z,99402.59
2022-12-09T17:01:17.476Z,99400.63
2022-12-09T17:03:49.481Z,99397.03
2022-12-09T17:06:20.422Z,99408.28
2022-12-09T17:08:49.642Z,99403.47
2022-12-09T17:11:18.786Z,99405.81
2022-12-09T17:13:46.576Z,99406.41
2022-12-09T17:16:14.457Z,99396.97
2022-12-09T17:18:42.511Z,99410.84
2022-12-09T17:21:12.514Z,99406.28
2022-12-09T17:23:41.113Z,99409.47
2022-12-09T17:26:11.971Z,99411.66
2022-12-09T17:28:40.098Z,99420.75
2022-12-09T17:31:09.866Z,99419.97
2022-12-09T17:33:38.327Z,99416.34
2022-12-09T17:36:07.336Z,99410.66
2022-12-09T17:38:35.332Z,99414.63
2022-12-09T17:41:08.006Z,99420.06
2022-12-09T17:43:37.742Z,99435.44
2022-12-09T17:46:07.369Z,99431.28
2022-12-09T17:48:36.321Z,99437.38
2022-12-09T17:51:07.714Z,99439.66
2022-12-09T17:53:37.116Z,99444.81
2022-12-09T17:56:09.314Z,99444.53
2022-12-09T17:58:39.029Z,99434.13
2022-12-09T18:01:14.203Z,99445.63
2022-12-09T18:04:01.327Z,99440.50
2022-12-09T18:06:34.229Z,99451.84
2022-12-09T18:09:02.633Z,99458.44
2022-12-09T18:11:30.628Z,99451.25
2022-12-09T18:14:00.137Z,99459.59
2022-12-09T18:16:28.115Z,99460.47
2022-12-09T18:18:55.969Z,99449.63
2022-12-09T18:21:23.760Z,99452.13
2022-12-09T18:23:51.596Z,99452.81
2022-12-09T18:26:20.071Z,99456.59
2022-12-09T18:28:47.870Z,99459.09
2022-12-09T18:31:19.101Z,99454.16
2022-12-09T18:33:47.223Z,99450.25
2022-12-09T18:36:17.564Z,99456.66
2022-12-09T18:38:45.970Z,99460.25
2022-12-09T18:41:14.990Z,99462.44
2022-12-09T18:43:45.259Z,99464.38
2022-12-09T18:46:15.708Z,99461.75
2022-12-09T18:48:47.295Z,99465.66
2022-12-09T18:51:16.756Z,99465.94
2022-12-09T18:53:44.849Z,99463.28
2022-12-09T18:56:13.405Z,99467.72
2022-12-09T18:59:05.446Z,99467.19
2022-12-09T19:01:30.770Z,99470.78
2022-12-09T19:04:04.623Z,99467.75
2022-12-09T19:06:37.399Z,99475.63
2022-12-09T19:09:07.599Z,99469.53
2022-12-09T19:11:37.051Z,99470.63
2022-12-09T19:14:06.247Z,99478.09
2022-12-09T19:16:34.122Z,99482.97
2022-12-09T19:19:09.102Z,99481.69
2022-12-09T19:21:37.907Z,99491.38
2022-12-09T19:24:06.298Z,99485.97
2022-12-09T19:26:36.450Z,99482.81
2022-12-09T19:29:07.461Z,99491.25
2022-12-09T19:31:37.735Z,99482.97
2022-12-09T19:34:08.959Z,99479.91
2022-12-09T19:36:36.711Z,99485.41
2022-12-09T19:39:08.151Z,99474.38
2022-12-09T19:41:36.290Z,99488.63
2022-12-09T19:44:05.138Z,99475.75
2022-12-09T19:46:33.967Z,99477.97
2022-12-09T19:49:02.564Z,99491.00
2022-12-09T19:51:32.170Z,99494.72
2022-12-09T19:54:01.904Z,99490.16
2022-12-09T19:56:30.544Z,99484.63
2022-12-09T19:58:58.491Z,99482.41
2022-12-09T20:01:28.326Z,99492.53
2022-12-09T20:04:05.268Z,99496.53
2022-12-09T20:06:43.388Z,99485.88
2022-12-09T20:09:13.819Z,99492.09
2022-12-09T20:11:43.068Z,99505.94
2022-12-09T20:14:13.728Z,99497.09
2022-12-09T20:16:41.885Z,99497.50
2022-12-09T20:19:09.616Z,99506.34
2022-12-09T20:21:37.738Z,99498.19
2022-12-09T20:24:07.919Z,99506.34
2022-12-09T20:26:37.236Z,99505.00
2022-12-09T20:29:07.363Z,99509.56
2022-12-09T20:31:36.696Z,99510.38
2022-12-09T20:34:06.443Z,99512.88
2022-12-09T20:36:36.054Z,99511.47
2022-12-09T20:39:11.167Z,99510.66
2022-12-09T20:41:39.605Z,99514.25
2022-12-09T20:44:07.286Z,99520.47
2022-12-09T20:46:35.537Z,99526.72
2022-12-09T20:49:03.385Z,99524.22
2022-12-09T20:51:33.162Z,99529.34
2022-12-09T20:54:02.136Z,99523.91
2022-12-09T20:56:31.154Z,99532.78
2022-12-09T20:58:59.324Z,99532.50
2022-12-09T21:01:29.013Z,99526.44
2022-12-09T21:03:58.706Z,99531.97
2022-12-09T21:06:30.425Z,99533.91
2022-12-09T21:09:01.114Z,99530.31
2022-12-09T21:11:29.012Z,99542.34
2022-12-09T21:14:00.692Z,99546.38
2022-12-09T21:16:29.903Z,99542.63
2022-12-09T21:18:59.645Z,99544.16
2022-12-09T21:21:30.602Z,99544.44
2022-12-09T21:23:58.518Z,99544.44
2022-12-09T21:26:26.665Z,99541.94
2022-12-09T21:28:55.297Z,99544.16
2022-12-09T21:31:26.432Z,99550.09
2022-12-09T21:33:56.742Z,99546.25
2022-12-09T21:36:26.733Z,99548.72
2022-12-09T21:38:56.178Z,99545.28
2022-12-09T21:41:25.606Z,99541.25
2022-12-09T21:43:55.033Z,99543.34
2022-12-09T21:46:26.675Z,99546.09
2022-12-09T21:49:00.120Z,99556.19
2022-12-09T21:51:31.657Z,99544.44
2022-12-09T21:53:59.975Z,99546.09
2022-12-09T21:56:30.648Z,99542.22
2022-12-09T21:58:59.692Z,99541.25
2022-12-09T22:01:31.163Z,99551.38
2022-12-09T22:04:00.614Z,99544.16
2022-12-09T22:06:29.055Z,99541.09
2022-12-09T22:08:56.790Z,99542.50
2022-12-09T22:11:26.425Z,99545.00
2022-12-09T22:13:54.140Z,99544.03
2022-12-09T22:16:23.650Z,99548.88
2022-12-09T22:18:54.182Z,99538.34
2022-12-09T22:21:25.713Z,99550.94
2022-12-09T22:23:54.547Z,99549.69
2022-12-09T22:26:22.979Z,99556.06
2022-12-09T22:28:51.084Z,99554.00
2022-12-09T22:31:21.367Z,99552.19
2022-12-09T22:33:50.064Z,99557.19
2022-12-09T22:36:20.638Z,99556.63
2022-12-09T22:38:48.954Z,99562.44
2022-12-09T22:41:19.022Z,99553.72
2022-12-09T22:43:48.179Z,99557.59
2022-12-09T22:46:17.631Z,99562.84
2022-12-09T22:48:45.487Z,99559.66
2022-12-09T22:51:15.468Z,99562.97
2022-12-09T22:53:44.989Z,99562.13
2022-12-09T22:56:13.419Z,99570.47
2022-12-09T22:58:41.370Z,99562.69
2022-12-09T23:01:11.938Z,99561.88
2022-12-09T23:03:40.564Z,99562.44
2022-12-09T23:06:09.111Z,99562.44
2022-12-09T23:08:38.235Z,99569.88
2022-12-09T23:11:09.648Z,99567.97
2022-12-09T23:13:40.877Z,99570.19
2022-12-09T23:16:12.437Z,99573.22
2022-12-09T23:18:40.816Z,99571.69
2022-12-09T23:21:10.783Z,99572.38
2022-12-09T23:23:39.008Z,99572.53
2022-12-09T23:26:09.923Z,99566.88
2022-12-09T23:28:38.267Z,99567.00
2022-12-09T23:31:08.850Z,99567.13
2022-12-09T23:33:36.741Z,99574.31
2022-12-09T23:36:08.157Z,99575.72
2022-12-09T23:38:36.160Z,99567.41
2022-12-09T23:41:04.482Z,99567.81
2022-12-09T23:43:34.312Z,99562.97
2022-12-09T23:46:02.774Z,99567.81
2022-12-09T23:48:30.526Z,99576.56
2022-12-09T23:51:00.004Z,99576.81
2022-12-09T23:53:27.769Z,99567.25
2022-12-09T23:55:55.412Z,99567.13
2022-12-09T23:58:23.098Z,99574.28
